createdAt,value
2023-03-30T00:01:15.211Z,85.12
2023-03-30T00:03:45.310Z,85.59
2023-03-30T00:06:21.217Z,85.43
2023-03-30T00:08:57.780Z,85.14
2023-03-30T00:11:27.352Z,85.51
2023-03-30T00:13:55.387Z,85.85
2023-03-30T00:16:23.582Z,85.77
2023-03-30T00:18:52.088Z,85.97
2023-03-30T00:21:21.474Z,86.40
2023-03-30T00:23:50.464Z,86.30
2023-03-30T00:26:18.756Z,85.96
2023-03-30T00:28:46.933Z,86.46
2023-03-30T00:31:15.062Z,86.59
2023-03-30T00:33:47.029Z,86.23
2023-03-30T00:36:16.462Z,86.38
2023-03-30T00:38:45.950Z,86.38
2023-03-30T00:41:14.756Z,86.20
2023-03-30T00:44:03.292Z,86.35
2023-03-30T00:46:32.290Z,86.51
2023-03-30T00:49:09.751Z,86.53
2023-03-30T00:51:42.405Z,87.30
2023-03-30T00:54:16.868Z,86.98
2023-03-30T00:56:45.538Z,86.85
2023-03-30T00:59:14.534Z,87.46
2023-03-30T01:01:42.608Z,87.57
2023-03-30T01:04:13.312Z,87.05
2023-03-30T01:06:43.680Z,87.10
2023-03-30T01:09:13.269Z,87.20
2023-03-30T01:11:42.893Z,87.00
2023-03-30T01:14:14.965Z,87.02
2023-03-30T01:16:56.047Z,87.32
2023-03-30T01:19:36.447Z,87.88
2023-03-30T01:22:29.799Z,88.10
2023-03-30T01:25:15.321Z,88.27
2023-03-30T01:28:11.237Z,88.15
2023-03-30T01:31:21.947Z,88.43
2023-03-30T01:34:08.810Z,88.42
2023-03-30T01:36:58.107Z,88.86
2023-03-30T01:39:30.286Z,88.69
2023-03-30T01:42:19.174Z,88.60
2023-03-30T01:45:14.153Z,89.51
2023-03-30T01:47:55.221Z,89.35
2023-03-30T01:50:35.087Z,89.07
2023-03-30T01:53:23.592Z,89.59
2023-03-30T01:55:58.339Z,90.55
2023-03-30T01:58:36.197Z,90.84
2023-03-30T02:01:10.386Z,91.61
2023-03-30T02:03:42.181Z,90.96
2023-03-30T02:06:38.798Z,91.16
2023-03-30T02:09:11.412Z,91.24
2023-03-30T02:11:44.045Z,91.37
2023-03-30T02:14:16.125Z,92.04
2023-03-30T02:16:49.827Z,92.48
2023-03-30T02:19:19.473Z,93.43
2023-03-30T02:21:48.250Z,93.10
2023-03-30T02:24:20.789Z,93.11
2023-03-30T02:26:51.866Z,92.48
2023-03-30T02:29:22.397Z,92.10
2023-03-30T02:31:54.721Z,92.06
2023-03-30T02:34:38.177Z,91.62
2023-03-30T02:37:15.386Z,91.95
2023-03-30T02:39:52.342Z,92.71
2023-03-30T02:42:41.976Z,92.98
2023-03-30T02:45:49.282Z,93.46
2023-03-30T02:48:23.687Z,94.73
2023-03-30T02:51:08.824Z,94.35
2023-03-30T02:54:07.478Z,94.62
2023-03-30T02:57:12.005Z,94.60
2023-03-30T02:59:45.221Z,94.59
2023-03-30T03:02:23.810Z,93.86
2023-03-30T03:04:58.698Z,92.97
2023-03-30T03:07:48.270Z,93.36
2023-03-30T03:10:16.213Z,93.90
2023-03-30T03:12:45.316Z,94.23
2023-03-30T03:15:14.102Z,94.30
2023-03-30T03:17:51.711Z,94.63
2023-03-30T03:20:20.069Z,94.90
2023-03-30T03:22:48.005Z,94.84
2023-03-30T03:25:16.752Z,94.97
2023-03-30T03:27:54.359Z,94.33
2023-03-30T03:30:24.549Z,93.73
2023-03-30T03:33:00.982Z,93.71
2023-03-30T03:35:30.169Z,94.20
2023-03-30T03:37:58.913Z,95.24
2023-03-30T03:40:27.382Z,95.20
2023-03-30T03:42:56.392Z,95.89
2023-03-30T03:45:24.370Z,96.14
2023-03-30T03:47:57.982Z,96.60
2023-03-30T03:50:41.896Z,97.40
2023-03-30T03:53:11.018Z,97.57
2023-03-30T03:55:38.961Z,97.70
2023-03-30T03:58:08.191Z,97.45
2023-03-30T04:00:37.851Z,97.57
2023-03-30T04:03:06.281Z,97.82
2023-03-30T04:05:35.470Z,97.53
2023-03-30T04:08:04.045Z,96.98
2023-03-30T04:10:32.257Z,97.33
2023-03-30T04:13:20.156Z,97.43
2023-03-30T04:16:26.388Z,97.21
2023-03-30T04:19:09.127Z,97.35
2023-03-30T04:21:53.106Z,97.65
2023-03-30T04:25:00.099Z,97.86
2023-03-30T04:27:56.141Z,98.93
2023-03-30T04:30:45.760Z,98.60
2023-03-30T04:33:53.073Z,98.68
2023-03-30T04:36:43.412Z,98.74
2023-03-30T04:39:41.554Z,98.56
2023-03-30T04:42:34.325Z,98.13
2023-03-30T04:45:14.685Z,98.93
2023-03-30T04:48:02.956Z,99.22
2023-03-30T04:50:51.360Z,99.84
2023-03-30T04:53:37.753Z,99.91
2023-03-30T04:56:24.353Z,99.76
2023-03-30T04:59:06.680Z,99.13
2023-03-30T05:01:54.856Z,99.77
2023-03-30T05:04:43.276Z,99.94
2023-03-30T05:07:29.836Z,100.00
2023-03-30T05:10:17.904Z,100.00
2023-03-30T05:12:57.370Z,100.00
2023-03-30T05:15:54.922Z,100.00
2023-03-30T05:18:44.670Z,100.00
2023-03-30T05:21:38.872Z,100.00
2023-03-30T05:24:26.404Z,100.00
2023-03-30T05:27:13.654Z,100.00
2023-03-30T05:29:53.417Z,100.00
2023-03-30T05:32:40.854Z,100.00
2023-03-30T05:35:44.398Z,100.00
2023-03-30T05:38:36.244Z,100.00
2023-03-30T05:41:15.105Z,100.00
2023-03-30T05:43:58.054Z,100.00
2023-03-30T05:46:44.867Z,100.00
2023-03-30T05:49:42.943Z,100.00
2023-03-30T05:52:24.919Z,100.00
2023-03-30T05:55:31.122Z,100.00
2023-03-30T05:58:27.632Z,100.00
2023-03-30T06:01:07.595Z,100.00
2023-03-30T06:03:38.885Z,100.00
2023-03-30T06:06:08.125Z,100.00
2023-03-30T06:08:36.413Z,100.00
2023-03-30T06:11:06.464Z,100.00
2023-03-30T06:13:44.453Z,100.00
2023-03-30T06:16:12.351Z,100.00
2023-03-30T06:18:40.284Z,100.00
2023-03-30T06:21:10.347Z,100.00
2023-03-30T06:23:58.263Z,100.00
2023-03-30T06:26:28.735Z,100.00
2023-03-30T06:28:56.607Z,100.00
2023-03-30T06:31:25.384Z,100.00
2023-03-30T06:34:04.605Z,100.00
2023-03-30T06:36:44.622Z,100.00
2023-03-30T06:39:15.580Z,100.00
2023-03-30T06:41:43.563Z,100.00
2023-03-30T06:44:27.346Z,100.00
2023-03-30T06:46:55.525Z,100.00
2023-03-30T06:49:22.318Z,100.00
2023-03-30T06:52:08.883Z,100.00
2023-03-30T06:54:37.531Z,100.00
2023-03-30T06:57:08.009Z,100.00
2023-03-30T06:59:36.621Z,100.00
2023-03-30T07:02:23.025Z,100.00
2023-03-30T07:05:10.730Z,100.00
2023-03-30T07:07:47.710Z,100.00
2023-03-30T07:10:16.381Z,100.00
2023-03-30T07:12:45.571Z,100.00
2023-03-30T07:15:14.975Z,100.00
2023-03-30T07:17:43.459Z,100.00
2023-03-30T07:20:15.968Z,100.00
2023-03-30T07:22:58.987Z,100.00
2023-03-30T07:25:27.244Z,100.00
2023-03-30T07:27:56.190Z,100.00
2023-03-30T07:30:25.653Z,100.00
2023-03-30T07:32:59.022Z,100.00
2023-03-30T07:35:27.423Z,100.00
2023-03-30T07:38:02.854Z,100.00
2023-03-30T07:40:35.706Z,100.00
2023-03-30T07:43:04.206Z,100.00
2023-03-30T07:45:32.200Z,100.00
2023-03-30T07:48:01.032Z,100.00
2023-03-30T07:50:29.698Z,100.00
2023-03-30T07:52:58.622Z,100.00
2023-03-30T07:55:28.876Z,100.00
2023-03-30T07:58:02.494Z,100.00
2023-03-30T08:00:31.084Z,100.00
2023-03-30T08:03:18.464Z,100.00
2023-03-30T08:06:00.799Z,100.00
2023-03-30T08:08:34.225Z,100.00
2023-03-30T08:11:02.997Z,100.00
2023-03-30T08:13:33.046Z,100.00
2023-03-30T08:16:01.473Z,100.00
2023-03-30T08:18:29.654Z,100.00
2023-03-30T08:20:57.629Z,100.00
2023-03-30T08:23:25.530Z,100.00
2023-03-30T08:25:57.268Z,100.00
2023-03-30T08:28:25.810Z,100.00
2023-03-30T08:30:54.826Z,100.00
2023-03-30T08:33:25.762Z,100.00
2023-03-30T08:35:53.608Z,100.00
2023-03-30T08:38:21.587Z,100.00
2023-03-30T08:40:50.929Z,100.00
2023-03-30T08:43:22.582Z,100.00
2023-03-30T08:45:51.983Z,100.00
2023-03-30T08:48:25.007Z,100.00
2023-03-30T08:50:58.597Z,99.94
2023-03-30T08:53:29.648Z,99.13
2023-03-30T08:56:00.398Z,99.55
2023-03-30T08:59:06.235Z,97.57
2023-03-30T09:01:56.366Z,97.86
2023-03-30T09:04:45.929Z,97.88
2023-03-30T09:07:23.628Z,95.01
2023-03-30T09:09:52.951Z,94.81
2023-03-30T09:12:31.576Z,94.39
2023-03-30T09:15:06.028Z,95.63
2023-03-30T09:17:44.122Z,94.16
2023-03-30T09:20:19.475Z,93.77
2023-03-30T09:22:48.713Z,93.41
2023-03-30T09:25:26.837Z,93.71
2023-03-30T09:28:09.363Z,92.47
2023-03-30T09:30:48.213Z,91.91
2023-03-30T09:33:28.004Z,91.03
2023-03-30T09:36:20.167Z,89.64
2023-03-30T09:38:50.375Z,88.77
2023-03-30T09:41:35.289Z,88.40
2023-03-30T09:44:03.266Z,86.61
2023-03-30T09:46:31.460Z,84.87
2023-03-30T09:49:15.222Z,84.52
2023-03-30T09:52:01.836Z,83.83
2023-03-30T09:54:38.342Z,81.87
2023-03-30T09:57:22.422Z,81.09
2023-03-30T09:59:50.576Z,81.21
2023-03-30T10:02:20.766Z,80.27
2023-03-30T10:04:52.793Z,79.79
2023-03-30T10:07:25.318Z,80.18
2023-03-30T10:09:54.227Z,78.79
2023-03-30T10:12:25.335Z,77.10
2023-03-30T10:14:56.968Z,76.86
2023-03-30T10:17:26.882Z,76.90
2023-03-30T10:20:14.935Z,77.55
2023-03-30T10:22:53.562Z,76.31
2023-03-30T10:25:27.294Z,77.03
2023-03-30T10:27:58.301Z,77.01
2023-03-30T10:30:28.095Z,76.47
2023-03-30T10:32:59.565Z,75.35
2023-03-30T10:35:34.513Z,75.65
2023-03-30T10:38:05.175Z,75.38
2023-03-30T10:40:39.676Z,75.00
2023-03-30T10:43:28.016Z,73.74
2023-03-30T10:46:06.146Z,73.17
2023-03-30T10:49:00.417Z,73.39
2023-03-30T10:51:47.666Z,73.00
2023-03-30T10:54:27.487Z,72.92
2023-03-30T10:57:00.943Z,72.88
2023-03-30T11:00:13.114Z,73.05
2023-03-30T11:02:55.810Z,73.31
2023-03-30T11:05:35.823Z,73.92
2023-03-30T11:08:17.654Z,74.08
2023-03-30T11:10:53.123Z,74.23
2023-03-30T11:13:45.357Z,74.59
2023-03-30T11:16:20.938Z,74.56
2023-03-30T11:19:00.994Z,75.01
2023-03-30T11:21:39.559Z,75.02
2023-03-30T11:24:19.959Z,75.19
2023-03-30T11:27:14.345Z,75.69
2023-03-30T11:29:56.001Z,75.92
2023-03-30T11:32:35.756Z,76.42
2023-03-30T11:35:20.923Z,76.74
2023-03-30T11:38:01.363Z,77.14
2023-03-30T11:40:47.106Z,77.62
2023-03-30T11:43:16.559Z,78.15
2023-03-30T11:46:10.048Z,78.61
2023-03-30T11:49:04.362Z,79.00
2023-03-30T11:51:49.313Z,79.22
2023-03-30T11:54:49.628Z,79.40
2023-03-30T11:57:39.318Z,79.93
2023-03-30T12:00:26.867Z,80.26
2023-03-30T12:03:19.587Z,80.45
2023-03-30T12:06:14.769Z,80.56
2023-03-30T12:09:06.024Z,80.37
2023-03-30T12:11:43.725Z,80.34
2023-03-30T12:14:50.796Z,80.42
2023-03-30T12:17:40.904Z,80.58
2023-03-30T12:20:35.886Z,80.44
2023-03-30T12:23:12.856Z,80.25
2023-03-30T12:25:59.588Z,80.19
2023-03-30T12:29:26.184Z,79.86
2023-03-30T12:32:18.834Z,79.94
2023-03-30T12:34:46.870Z,79.85
2023-03-30T12:37:35.052Z,79.66
2023-03-30T12:40:09.678Z,79.74
2023-03-30T12:42:55.789Z,79.72
2023-03-30T12:45:33.307Z,79.36
2023-03-30T12:48:26.666Z,78.99
2023-03-30T12:51:32.043Z,79.42
2023-03-30T12:54:03.008Z,79.41
2023-03-30T12:56:38.291Z,78.75
2023-03-30T12:59:43.624Z,78.00
2023-03-30T13:02:30.806Z,77.96
2023-03-30T13:04:59.528Z,77.08
2023-03-30T13:07:35.063Z,76.52
2023-03-30T13:10:43.192Z,76.07
2023-03-30T13:13:46.680Z,75.54
2023-03-30T13:16:15.164Z,74.86
2023-03-30T13:18:55.359Z,75.10
2023-03-30T13:21:26.093Z,75.44
2023-03-30T13:24:41.424Z,75.40
2023-03-30T13:27:18.217Z,75.74
2023-03-30T13:29:57.078Z,75.71
2023-03-30T13:32:33.467Z,75.76
2023-03-30T13:35:19.627Z,76.06
2023-03-30T13:37:47.440Z,76.19
2023-03-30T13:40:38.014Z,76.12
2023-03-30T13:43:20.291Z,76.23
2023-03-30T13:45:48.210Z,76.11
2023-03-30T13:48:24.395Z,76.21
2023-03-30T13:50:59.232Z,76.36
2023-03-30T13:53:31.434Z,76.46
2023-03-30T13:55:59.554Z,76.36
2023-03-30T13:58:33.520Z,76.62
2023-03-30T14:01:07.554Z,76.73
2023-03-30T14:03:39.005Z,77.08
2023-03-30T14:06:13.672Z,76.75
2023-03-30T14:08:50.636Z,76.93
2023-03-30T14:11:22.438Z,77.14
2023-03-30T14:13:52.584Z,76.04
2023-03-30T14:16:26.737Z,75.59
2023-03-30T14:19:09.682Z,75.00
2023-03-30T14:21:39.499Z,74.10
2023-03-30T14:24:13.143Z,74.19
2023-03-30T14:26:41.910Z,74.02
2023-03-30T14:29:24.587Z,73.98
2023-03-30T14:32:09.189Z,74.24
2023-03-30T14:34:37.941Z,74.10
2023-03-30T14:37:08.357Z,74.07
2023-03-30T14:39:41.956Z,74.09
2023-03-30T14:42:15.662Z,73.78
2023-03-30T14:44:44.768Z,73.83
2023-03-30T14:47:14.078Z,73.50
2023-03-30T14:49:44.201Z,73.59
2023-03-30T14:52:22.077Z,73.29
2023-03-30T14:55:06.132Z,73.73
2023-03-30T14:57:40.555Z,73.66
2023-03-30T15:00:21.082Z,73.74
2023-03-30T15:02:55.252Z,74.07
2023-03-30T15:05:27.151Z,74.34
2023-03-30T15:07:55.860Z,74.51
2023-03-30T15:10:32.915Z,74.79
2023-03-30T15:13:03.403Z,74.98
2023-03-30T15:15:33.027Z,75.41
2023-03-30T15:18:04.291Z,75.84
2023-03-30T15:20:32.598Z,76.08
2023-03-30T15:23:01.121Z,76.74
2023-03-30T15:25:33.065Z,76.68
2023-03-30T15:28:19.379Z,77.23
2023-03-30T15:30:56.489Z,77.79
2023-03-30T15:33:42.041Z,78.34
2023-03-30T15:36:23.157Z,78.73
2023-03-30T15:38:54.577Z,79.07
2023-03-30T15:41:25.511Z,79.25
2023-03-30T15:44:09.525Z,79.71
2023-03-30T15:46:38.208Z,79.64
2023-03-30T15:49:07.083Z,80.20
2023-03-30T15:51:52.847Z,80.70
2023-03-30T15:54:27.505Z,81.10
2023-03-30T15:57:13.547Z,81.43
2023-03-30T15:59:49.433Z,81.60
2023-03-30T16:02:31.211Z,81.94
2023-03-30T16:05:05.156Z,82.44
2023-03-30T16:07:34.725Z,82.49
2023-03-30T16:10:02.648Z,82.75
2023-03-30T16:12:31.399Z,83.18
2023-03-30T16:14:59.313Z,83.57
2023-03-30T16:17:27.279Z,83.62
2023-03-30T16:19:55.159Z,83.95
2023-03-30T16:22:23.066Z,83.58
2023-03-30T16:24:51.284Z,84.00
2023-03-30T16:27:19.285Z,83.38
2023-03-30T16:29:47.093Z,83.81
2023-03-30T16:32:15.142Z,84.45
2023-03-30T16:34:44.004Z,84.30
2023-03-30T16:37:12.026Z,84.87
2023-03-30T16:39:40.544Z,85.57
2023-03-30T16:42:08.432Z,85.93
2023-03-30T16:44:36.552Z,86.41
2023-03-30T16:47:05.112Z,86.76
2023-03-30T16:49:33.210Z,87.22
2023-03-30T16:52:02.129Z,87.26
2023-03-30T16:54:32.597Z,87.84
2023-03-30T16:57:01.585Z,87.46
2023-03-30T16:59:32.034Z,87.56
2023-03-30T17:02:00.517Z,87.82
2023-03-30T17:04:28.579Z,87.58
2023-03-30T17:06:56.586Z,87.57
2023-03-30T17:09:24.457Z,87.72
2023-03-30T17:11:52.605Z,88.25
2023-03-30T17:14:20.978Z,88.08
2023-03-30T17:16:48.946Z,88.43
2023-03-30T17:19:16.858Z,88.14
2023-03-30T17:21:46.106Z,88.94
2023-03-30T17:24:16.470Z,88.97
2023-03-30T17:26:44.831Z,88.74
2023-03-30T17:29:12.975Z,89.28
2023-03-30T17:31:45.865Z,88.94
2023-03-30T17:34:14.889Z,89.38
2023-03-30T17:36:43.150Z,89.38
2023-03-30T17:39:14.912Z,89.69
2023-03-30T17:41:42.990Z,89.76
2023-03-30T17:44:10.965Z,89.72
2023-03-30T17:46:39.549Z,89.89
2023-03-30T17:49:16.879Z,90.15
2023-03-30T17:51:44.928Z,90.51
2023-03-30T17:54:13.282Z,92.93
2023-03-30T17:56:41.387Z,95.29
2023-03-30T17:59:11.609Z,97.43
2023-03-30T18:01:40.275Z,95.73
2023-03-30T18:04:09.409Z,94.69
2023-03-30T18:06:37.978Z,94.39
2023-03-30T18:09:13.982Z,97.37
2023-03-30T18:11:42.870Z,98.29
2023-03-30T18:14:11.247Z,100.00
2023-03-30T18:16:43.679Z,100.00
2023-03-30T18:19:12.010Z,100.00
2023-03-30T18:21:40.609Z,100.00
2023-03-30T18:24:08.637Z,100.00
2023-03-30T18:26:39.751Z,100.00
2023-03-30T18:29:22.285Z,100.00
2023-03-30T18:31:50.426Z,100.00
2023-03-30T18:34:19.733Z,100.00
2023-03-30T18:36:47.758Z,100.00
2023-03-30T18:39:22.427Z,100.00
2023-03-30T18:41:50.502Z,100.00
2023-03-30T18:44:18.484Z,100.00
2023-03-30T18:46:51.638Z,100.00
2023-03-30T18:49:23.850Z,100.00
2023-03-30T18:51:52.681Z,100.00
2023-03-30T18:54:20.849Z,100.00
2023-03-30T18:56:49.766Z,100.00
2023-03-30T18:59:19.829Z,100.00
2023-03-30T19:01:47.936Z,100.00
2023-03-30T19:04:15.994Z,100.00
2023-03-30T19:06:46.229Z,100.00
2023-03-30T19:09:14.212Z,100.00
2023-03-30T19:11:42.304Z,100.00
2023-03-30T19:14:11.995Z,100.00
2023-03-30T19:16:40.079Z,100.00
2023-03-30T19:19:14.876Z,100.00
2023-03-30T19:21:43.453Z,100.00
2023-03-30T19:24:13.965Z,100.00
2023-03-30T19:26:41.947Z,100.00
2023-03-30T19:29:09.804Z,100.00
2023-03-30T19:31:37.853Z,100.00
2023-03-30T19:34:07.376Z,100.00
2023-03-30T19:36:35.826Z,100.00
2023-03-30T19:39:03.991Z,100.00
2023-03-30T19:41:31.857Z,100.00
2023-03-30T19:43:59.728Z,100.00
2023-03-30T19:46:27.602Z,100.00
2023-03-30T19:48:55.635Z,100.00
2023-03-30T19:51:23.495Z,100.00
2023-03-30T19:53:51.371Z,100.00
2023-03-30T19:56:19.293Z,100.00
2023-03-30T19:58:47.422Z,100.00
2023-03-30T20:01:15.255Z,100.00
2023-03-30T20:03:43.720Z,100.00
2023-03-30T20:06:12.655Z,100.00
2023-03-30T20:08:40.838Z,100.00
2023-03-30T20:11:10.231Z,100.00
2023-03-30T20:13:38.670Z,100.00
2023-03-30T20:16:06.749Z,100.00
2023-03-30T20:18:35.730Z,100.00
2023-03-30T20:21:04.526Z,100.00
2023-03-30T20:23:33.205Z,100.00
2023-03-30T20:26:04.488Z,100.00
2023-03-30T20:28:32.708Z,100.00
2023-03-30T20:31:01.952Z,100.00
2023-03-30T20:33:32.934Z,100.00
2023-03-30T20:36:01.301Z,100.00
2023-03-30T20:38:29.334Z,100.00
2023-03-30T20:41:00.196Z,100.00
2023-03-30T20:43:28.312Z,100.00
2023-03-30T20:46:02.708Z,100.00
2023-03-30T20:48:39.369Z,100.00
2023-03-30T20:51:13.000Z,100.00
2023-03-30T20:53:42.527Z,100.00
2023-03-30T20:56:11.055Z,100.00
2023-03-30T20:58:39.856Z,100.00
2023-03-30T21:01:14.466Z,100.00
2023-03-30T21:03:44.314Z,100.00
2023-03-30T21:06:16.189Z,100.00
2023-03-30T21:08:44.465Z,100.00
2023-03-30T21:11:12.485Z,100.00
2023-03-30T21:13:40.328Z,100.00
2023-03-30T21:16:08.782Z,100.00
2023-03-30T21:18:36.647Z,100.00
2023-03-30T21:21:06.169Z,100.00
2023-03-30T21:23:35.013Z,100.00
2023-03-30T21:26:09.161Z,100.00
2023-03-30T21:28:38.024Z,100.00
2023-03-30T21:31:08.263Z,100.00
2023-03-30T21:33:37.006Z,100.00
2023-03-30T21:36:07.245Z,100.00
2023-03-30T21:38:36.394Z,100.00
2023-03-30T21:41:11.416Z,100.00
2023-03-30T21:43:43.165Z,100.00
2023-03-30T21:46:16.626Z,100.00
2023-03-30T21:48:46.380Z,100.00
2023-03-30T21:51:18.003Z,100.00
2023-03-30T21:53:48.436Z,100.00
2023-03-30T21:56:17.965Z,100.00
2023-03-30T21:58:46.242Z,100.00
2023-03-30T22:01:15.070Z,100.00
2023-03-30T22:03:45.042Z,100.00
2023-03-30T22:06:16.347Z,100.00
2023-03-30T22:08:45.566Z,100.00
2023-03-30T22:11:22.611Z,100.00
2023-03-30T22:13:52.099Z,100.00
2023-03-30T22:16:23.009Z,100.00
2023-03-30T22:18:51.706Z,100.00
2023-03-30T22:21:22.470Z,100.00
2023-03-30T22:23:51.223Z,100.00
2023-03-30T22:26:19.142Z,100.00
2023-03-30T22:28:47.235Z,100.00
2023-03-30T22:31:15.894Z,100.00
2023-03-30T22:33:44.469Z,100.00
2023-03-30T22:36:21.128Z,100.00
2023-03-30T22:38:50.846Z,100.00
2023-03-30T22:41:24.897Z,100.00
2023-03-30T22:43:54.711Z,100.00
2023-03-30T22:46:25.078Z,100.00
2023-03-30T22:48:55.865Z,100.00
2023-03-30T22:51:28.655Z,100.00
2023-03-30T22:53:59.419Z,100.00
2023-03-30T22:56:29.670Z,100.00
2023-03-30T22:58:59.966Z,100.00
2023-03-30T23:01:32.591Z,100.00
2023-03-30T23:04:01.802Z,100.00
2023-03-30T23:06:31.356Z,100.00
2023-03-30T23:09:01.680Z,100.00
2023-03-30T23:11:31.009Z,100.00
2023-03-30T23:14:05.520Z,100.00
2023-03-30T23:16:35.941Z,100.00
2023-03-30T23:19:05.925Z,100.00
2023-03-30T23:21:34.475Z,100.00
2023-03-30T23:24:05.297Z,100.00
2023-03-30T23:26:34.095Z,100.00
2023-03-30T23:29:02.109Z,100.00
2023-03-30T23:31:30.096Z,100.00
2023-03-30T23:33:58.112Z,100.00
2023-03-30T23:36:27.271Z,100.00
2023-03-30T23:38:55.239Z,100.00
2023-03-30T23:41:24.019Z,100.00
2023-03-30T23:43:51.824Z,100.00
2023-03-30T23:46:20.088Z,100.00
2023-03-30T23:48:48.111Z,100.00
2023-03-30T23:51:16.097Z,100.00
2023-03-30T23:53:43.918Z,100.00
2023-03-30T23:56:13.892Z,100.00
2023-03-30T23:58:41.860Z,100.00
